sensor_id;sensor_type;location;lat;lon;timestamp;pressure;altitude;pressure_sealevel;temperature;humidity
61645;BME280;47553;52.428;13.382;2022-08-25T00:00:11;101546.78;;;19.97;100.00
61645;BME280;47553;52.428;13.382;2022-08-25T00:02:13;101531.16;;;20.00;100.00
61645;BME280;47553;52.428;13.382;2022-08-25T00:04:19;101533.00;;;20.00;100.00
61645;BME280;47553;52.428;13.382;2022-08-25T00:06:23;101536.81;;;19.97;100.00
61645;BME280;47553;52.428;13.382;2022-08-25T00:08:24;101530.56;;;19.97;100.00
61645;BME280;47553;52.428;13.382;2022-08-25T00:10:26;101527.63;;;19.88;100.00
61645;BME280;47553;52.428;13.382;2022-08-25T00:12:28;101527.63;;;19.88;100.00
61645;BME280;47553;52.428;13.382;2022-08-25T00:14:32;101526.25;;;19.94;100.00
61645;BME280;47553;52.428;13.382;2022-08-25T00:16:34;101539.06;;;19.92;100.00
61645;BME280;47553;52.428;13.382;2022-08-25T00:18:36;101539.91;;;19.92;100.00
61645;BME280;47553;52.428;13.382;2022-08-25T00:20:39;101528.63;;;19.87;100.00
61645;BME280;47553;52.428;13.382;2022-08-25T00:22:48;101530.09;;;19.80;100.00
61645;BME280;47553;52.428;13.382;2022-08-25T00:24:49;101522.75;;;19.82;100.00
61645;BME280;47553;52.428;13.382;2022-08-25T00:26:53;101528.16;;;19.82;100.00
61645;BME280;47553;52.428;13.382;2022-08-25T00:28:55;101504.28;;;19.76;100.00
61645;BME280;47553;52.428;13.382;2022-08-25T00:31:02;101520.03;;;19.82;100.00
61645;BME280;47553;52.428;13.382;2022-08-25T00:33:06;101521.25;;;19.78;100.00
61645;BME280;47553;52.428;13.382;2022-08-25T00:35:08;101512.91;;;19.81;100.00
61645;BME280;47553;52.428;13.382;2022-08-25T00:37:14;101519.78;;;19.85;100.00
61645;BME280;47553;52.428;13.382;2022-08-25T00:39:15;101513.78;;;19.71;100.00
61645;BME280;47553;52.428;13.382;2022-08-25T00:41:20;101516.69;;;19.79;100.00
61645;BME280;47553;52.428;13.382;2022-08-25T00:43:23;101523.47;;;19.84;100.00
61645;BME280;47553;52.428;13.382;2022-08-25T00:45:25;101508.38;;;19.71;100.00
61645;BME280;47553;52.428;13.382;2022-08-25T00:47:27;101512.41;;;19.76;100.00
61645;BME280;47553;52.428;13.382;2022-08-25T00:49:31;101509.22;;;19.71;100.00
61645;BME280;47553;52.428;13.382;2022-08-25T00:51:37;101515.63;;;19.70;100.00
61645;BME280;47553;52.428;13.382;2022-08-25T00:53:42;101515.41;;;19.62;100.00
61645;BME280;47553;52.428;13.382;2022-08-25T00:55:44;101514.91;;;19.68;100.00
61645;BME280;47553;52.428;13.382;2022-08-25T00:57:50;101514.03;;;19.68;100.00
61645;BME280;47553;52.428;13.382;2022-08-25T00:59:53;101523.63;;;19.72;100.00
61645;BME280;47553;52.428;13.382;2022-08-25T01:01:56;101513.31;;;19.66;100.00
61645;BME280;47553;52.428;13.382;2022-08-25T01:03:58;101522.03;;;19.69;100.00
61645;BME280;47553;52.428;13.382;2022-08-25T01:06:00;101527.22;;;19.61;100.00
61645;BME280;47553;52.428;13.382;2022-08-25T01:08:03;101527.22;;;19.61;100.00
61645;BME280;47553;52.428;13.382;2022-08-25T01:10:09;101535.84;;;19.55;100.00
61645;BME280;47553;52.428;13.382;2022-08-25T01:12:11;101536.34;;;19.60;100.00
61645;BME280;47553;52.428;13.382;2022-08-25T01:14:16;101533.38;;;19.63;100.00
61645;BME280;47553;52.428;13.382;2022-08-25T01:16:19;101528.94;;;19.62;100.00
61645;BME280;47553;52.428;13.382;2022-08-25T01:18:21;101531.19;;;19.57;100.00
61645;BME280;47553;52.428;13.382;2022-08-25T01:20:25;101519.88;;;19.52;100.00
61645;BME280;47553;52.428;13.382;2022-08-25T01:22:31;101521.59;;;19.53;100.00
61645;BME280;47553;52.428;13.382;2022-08-25T01:24:37;101522.72;;;19.50;100.00
61645;BME280;47553;52.428;13.382;2022-08-25T01:26:41;101521.34;;;19.56;100.00
61645;BME280;47553;52.428;13.382;2022-08-25T01:28:44;101520.63;;;19.54;100.00
61645;BME280;47553;52.428;13.382;2022-08-25T01:30:49;101519.88;;;19.52;100.00
61645;BME280;47553;52.428;13.382;2022-08-25T01:32:51;101519.88;;;19.52;100.00
61645;BME280;47553;52.428;13.382;2022-08-25T01:34:52;101519.53;;;19.45;100.00
61645;BME280;47553;52.428;13.382;2022-08-25T01:36:55;101522.63;;;19.41;100.00
61645;BME280;47553;52.428;13.382;2022-08-25T01:38:59;101523.47;;;19.41;100.00
61645;BME280;47553;52.428;13.382;2022-08-25T01:41:01;101525.41;;;19.50;100.00
61645;BME280;47553;52.428;13.382;2022-08-25T01:43:11;101529.75;;;19.42;100.00
61645;BME280;47553;52.428;13.382;2022-08-25T01:45:16;101523.47;;;19.41;100.00
61645;BME280;47553;52.428;13.382;2022-08-25T01:47:18;101529.50;;;19.45;100.00
61645;BME280;47553;52.428;13.382;2022-08-25T01:49:22;101518.19;;;19.40;100.00
61645;BME280;47553;52.428;13.382;2022-08-25T01:51:24;101525.19;;;19.31;100.00
61645;BME280;47553;52.428;13.382;2022-08-25T01:53:33;101517.94;;;19.31;100.00
61645;BME280;47553;52.428;13.382;2022-08-25T01:55:36;101512.88;;;19.38;100.00
61645;BME280;47553;52.428;13.382;2022-08-25T01:57:38;101512.16;;;19.36;100.00
61645;BME280;47553;52.428;13.382;2022-08-25T01:59:39;101510.09;;;19.40;100.00
61645;BME280;47553;52.428;13.382;2022-08-25T02:01:41;101515.72;;;19.37;100.00
61645;BME280;47553;52.428;13.382;2022-08-25T02:03:49;101510.09;;;19.40;100.00
61645;BME280;47553;52.428;13.382;2022-08-25T02:05:52;101509.09;;;19.29;100.00
61645;BME280;47553;52.428;13.382;2022-08-25T02:07:53;101517.97;;;19.20;100.00
61645;BME280;47553;52.428;13.382;2022-08-25T02:09:55;101505.91;;;19.24;100.00
61645;BME280;47553;52.428;13.382;2022-08-25T02:12:00;101511.31;;;19.24;100.00
61645;BME280;47553;52.428;13.382;2022-08-25T02:14:05;101515.97;;;19.34;100.00
61645;BME280;47553;52.428;13.382;2022-08-25T02:16:08;101510.56;;;19.34;100.00
61645;BME280;47553;52.428;13.382;2022-08-25T02:18:10;101506.13;;;19.33;100.00
61645;BME280;47553;52.428;13.382;2022-08-25T02:20:15;101506.16;;;19.21;100.00
61645;BME280;47553;52.428;13.382;2022-08-25T02:22:17;101512.19;;;19.25;100.00
61645;BME280;47553;52.428;13.382;2022-08-25T02:24:19;101502.59;;;19.21;100.00
61645;BME280;47553;52.428;13.382;2022-08-25T02:26:23;101506.66;;;19.26;100.00
61645;BME280;47553;52.428;13.382;2022-08-25T02:28:27;101498.78;;;19.23;100.00
61645;BME280;47553;52.428;13.382;2022-08-25T02:30:29;101495.25;;;19.12;100.00
61645;BME280;47553;52.428;13.382;2022-08-25T02:32:31;101495.13;;;19.13;100.00
61645;BME280;47553;52.428;13.382;2022-08-25T02:34:32;101493.13;;;19.04;100.00
61645;BME280;47553;52.428;13.382;2022-08-25T02:36:35;101492.66;;;19.10;100.00
61645;BME280;47553;52.428;13.382;2022-08-25T02:38:37;101496.34;;;19.09;100.00
61645;BME280;47553;52.428;13.382;2022-08-25T02:40:39;101492.78;;;18.97;100.00
61645;BME280;47553;52.428;13.382;2022-08-25T02:42:40;101488.25;;;18.87;100.00
61645;BME280;47553;52.428;13.382;2022-08-25T02:44:44;101483.84;;;18.86;100.00
61645;BME280;47553;52.428;13.382;2022-08-25T02:46:55;101483.22;;;18.82;100.00
61645;BME280;47553;52.428;13.382;2022-08-25T02:48:57;101481.13;;;18.75;100.00
61645;BME280;47553;52.428;13.382;2022-08-25T02:51:00;101490.22;;;18.74;100.00
61645;BME280;47553;52.428;13.382;2022-08-25T02:53:01;101478.69;;;18.72;100.00
61645;BME280;47553;52.428;13.382;2022-08-25T02:55:06;101490.22;;;18.74;100.00
61645;BME280;47553;52.428;13.382;2022-08-25T02:57:08;101488.75;;;18.70;100.00
61645;BME280;47553;52.428;13.382;2022-08-25T02:59:09;101480.41;;;18.73;100.00
61645;BME280;47553;52.428;13.382;2022-08-25T03:01:13;101483.09;;;18.73;100.00
61645;BME280;47553;52.428;13.382;2022-08-25T03:03:15;101476.22;;;18.68;100.00
61645;BME280;47553;52.428;13.382;2022-08-25T03:05:17;101483.59;;;18.66;100.00
61645;BME280;47553;52.428;13.382;2022-08-25T03:07:19;101474.75;;;18.64;100.00
61645;BME280;47553;52.428;13.382;2022-08-25T03:09:21;101475.88;;;18.62;100.00
61645;BME280;47553;52.428;13.382;2022-08-25T03:11:23;101476.22;;;18.68;100.00
61645;BME280;47553;52.428;13.382;2022-08-25T03:13:24;101470.34;;;18.75;100.00
61645;BME280;47553;52.428;13.382;2022-08-25T03:15:26;101471.06;;;18.65;100.00
61645;BME280;47553;52.428;13.382;2022-08-25T03:17:32;101475.75;;;18.63;100.00
61645;BME280;47553;52.428;13.382;2022-08-25T03:19:36;101470.59;;;18.60;100.00
61645;BME280;47553;52.428;13.382;2022-08-25T03:21:37;101478.19;;;18.66;100.00
61645;BME280;47553;52.428;13.382;2022-08-25T03:23:40;101470.22;;;18.65;100.00
61645;BME280;47553;52.428;13.382;2022-08-25T03:25:41;101466.28;;;18.69;100.00
61645;BME280;47553;52.428;13.382;2022-08-25T03:27:43;101466.66;;;18.76;100.00
61645;BME280;47553;52.428;13.382;2022-08-25T03:29:45;101465.69;;;18.65;100.00
61645;BME280;47553;52.428;13.382;2022-08-25T03:31:46;101465.91;;;18.62;100.00
61645;BME280;47553;52.428;13.382;2022-08-25T03:33:49;101461.00;;;18.56;100.00
61645;BME280;47553;52.428;13.382;2022-08-25T03:35:51;101457.31;;;18.68;100.00
61645;BME280;47553;52.428;13.382;2022-08-25T03:37:54;101454.38;;;18.72;100.00
61645;BME280;47553;52.428;13.382;2022-08-25T03:39:56;101462.97;;;18.77;100.00
61645;BME280;47553;52.428;13.382;2022-08-25T03:41:58;101454.38;;;18.72;100.00
61645;BME280;47553;52.428;13.382;2022-08-25T03:44:00;101455.09;;;18.85;100.00
61645;BME280;47553;52.428;13.382;2022-08-25T03:46:04;101460.00;;;18.91;100.00
61645;BME280;47553;52.428;13.382;2022-08-25T03:48:06;101458.16;;;18.91;100.00
61645;BME280;47553;52.428;13.382;2022-08-25T03:50:10;101461.97;;;18.78;100.00
61645;BME280;47553;52.428;13.382;2022-08-25T03:52:11;101456.84;;;18.63;100.00
61645;BME280;47553;52.428;13.382;2022-08-25T03:54:14;101452.88;;;18.45;100.00
61645;BME280;47553;52.428;13.382;2022-08-25T03:56:16;101451.91;;;18.57;100.00
61645;BME280;47553;52.428;13.382;2022-08-25T03:58:18;101456.84;;;18.63;100.00
61645;BME280;47553;52.428;13.382;2022-08-25T04:00:21;101457.31;;;18.68;100.00
61645;BME280;47553;52.428;13.382;2022-08-25T04:02:23;101453.88;;;18.78;100.00
61645;BME280;47553;52.428;13.382;2022-08-25T04:04:25;101466.28;;;18.80;100.00
61645;BME280;47553;52.428;13.382;2022-08-25T04:06:28;101466.53;;;18.77;100.00
61645;BME280;47553;52.428;13.382;2022-08-25T04:08:29;101465.44;;;18.68;100.00
61645;BME280;47553;52.428;13.382;2022-08-25T04:10:31;101473.66;;;18.56;100.00
61645;BME280;47553;52.428;13.382;2022-08-25T04:12:33;101471.28;;;18.51;100.00
61645;BME280;47553;52.428;13.382;2022-08-25T04:14:35;101464.19;;;18.61;100.00
61645;BME280;47553;52.428;13.382;2022-08-25T04:16:37;101464.19;;;18.61;100.00
61645;BME280;47553;52.428;13.382;2022-08-25T04:18:39;101472.06;;;18.64;100.00
61645;BME280;47553;52.428;13.382;2022-08-25T04:20:41;101462.59;;;18.59;100.00
61645;BME280;47553;52.428;13.382;2022-08-25T04:22:48;101474.63;;;18.55;100.00
61645;BME280;47553;52.428;13.382;2022-08-25T04:24:50;101475.13;;;18.60;100.00
61645;BME280;47553;52.428;13.382;2022-08-25T04:26:51;101474.13;;;18.72;100.00
61645;BME280;47553;52.428;13.382;2022-08-25T04:28:55;101481.38;;;18.72;100.00
61645;BME280;47553;52.428;13.382;2022-08-25T04:30:56;101488.75;;;18.81;100.00
61645;BME280;47553;52.428;13.382;2022-08-25T04:32:58;101485.81;;;18.84;100.00
61645;BME280;47553;52.428;13.382;2022-08-25T04:34:59;101484.69;;;18.86;100.00
61645;BME280;47553;52.428;13.382;2022-08-25T04:37:02;101484.81;;;18.96;100.00
61645;BME280;47553;52.428;13.382;2022-08-25T04:39:06;101482.72;;;19.11;100.00
61645;BME280;47553;52.428;13.382;2022-08-25T04:41:09;101479.47;;;19.28;100.00
61645;BME280;47553;52.428;13.382;2022-08-25T04:43:11;101485.59;;;19.41;100.00
61645;BME280;47553;52.428;13.382;2022-08-25T04:45:13;101475.88;;;19.50;100.00
61645;BME280;47553;52.428;13.382;2022-08-25T04:47:14;101485.47;;;19.43;100.00
61645;BME280;47553;52.428;13.382;2022-08-25T04:49:16;101482.53;;;19.46;100.00
61645;BME280;47553;52.428;13.382;2022-08-25T04:51:20;101479.69;;;19.47;100.00
61645;BME280;47553;52.428;13.382;2022-08-25T04:53:22;101473.72;;;19.65;100.00
61645;BME280;47553;52.428;13.382;2022-08-25T04:55:25;101475.91;;;19.71;100.00
61645;BME280;47553;52.428;13.382;2022-08-25T04:57:27;101469.47;;;20.04;100.00
61645;BME280;47553;52.428;13.382;2022-08-25T04:59:28;101475.78;;;20.14;100.00
61645;BME280;47553;52.428;13.382;2022-08-25T05:01:31;101476.78;;;20.13;100.00
61645;BME280;47553;52.428;13.382;2022-08-25T05:03:33;101474.03;;;20.24;100.00
61645;BME280;47553;52.428;13.382;2022-08-25T05:05:35;101473.31;;;20.52;100.00
61645;BME280;47553;52.428;13.382;2022-08-25T05:07:37;101471.13;;;20.67;100.00
61645;BME280;47553;52.428;13.382;2022-08-25T05:09:39;101473.09;;;20.55;100.00
61645;BME280;47553;52.428;13.382;2022-08-25T05:11:42;101476.88;;;20.53;100.00
61645;BME280;47553;52.428;13.382;2022-08-25T05:13:45;101474.81;;;20.56;100.00
61645;BME280;47553;52.428;13.382;2022-08-25T05:15:52;101475.13;;;20.63;100.00
61645;BME280;47553;52.428;13.382;2022-08-25T05:17:54;101477.31;;;20.79;100.00
61645;BME280;47553;52.428;13.382;2022-08-25T05:19:56;101472.00;;;20.68;100.00
61645;BME280;47553;52.428;13.382;2022-08-25T05:21:58;101476.88;;;20.74;100.00
61645;BME280;47553;52.428;13.382;2022-08-25T05:24:00;101476.59;;;20.77;100.00
61645;BME280;47553;52.428;13.382;2022-08-25T05:26:03;101471.44;;;20.74;100.00
61645;BME280;47553;52.428;13.382;2022-08-25T05:28:07;101477.47;;;20.87;100.00
61645;BME280;47553;52.428;13.382;2022-08-25T05:30:10;101488.91;;;20.91;100.00
61645;BME280;47553;52.428;13.382;2022-08-25T05:32:11;101488.59;;;20.84;100.00
61645;BME280;47553;52.428;13.382;2022-08-25T05:34:13;101491.09;;;20.66;100.00
61645;BME280;47553;52.428;13.382;2022-08-25T05:36:15;101487.09;;;20.61;100.00
61645;BME280;47553;52.428;13.382;2022-08-25T05:38:17;101488.59;;;20.53;100.00
61645;BME280;47553;52.428;13.382;2022-08-25T05:40:19;101495.69;;;20.45;100.00
61645;BME280;47553;52.428;13.382;2022-08-25T05:42:21;101490.28;;;20.24;100.00
61645;BME280;47553;52.428;13.382;2022-08-25T05:44:24;101494.09;;;20.01;100.00
61645;BME280;47553;52.428;13.382;2022-08-25T05:46:25;101491.44;;;19.89;100.00
61645;BME280;47553;52.428;13.382;2022-08-25T05:48:27;101489.03;;;19.75;100.00
61645;BME280;47553;52.428;13.382;2022-08-25T05:50:28;101496.69;;;19.70;100.00
61645;BME280;47553;52.428;13.382;2022-08-25T05:52:30;101494.97;;;19.69;100.00
61645;BME280;47553;52.428;13.382;2022-08-25T05:54:31;101497.72;;;19.58;100.00
61645;BME280;47553;52.428;13.382;2022-08-25T05:56:33;101491.19;;;19.60;100.00
61645;BME280;47553;52.428;13.382;2022-08-25T05:58:35;101497.78;;;19.36;100.00
61645;BME280;47553;52.428;13.382;2022-08-25T06:00:38;101495.56;;;19.41;100.00
61645;BME280;47553;52.428;13.382;2022-08-25T06:02:40;101490.03;;;19.31;100.00
61645;BME280;47553;52.428;13.382;2022-08-25T06:04:42;101500.50;;;19.24;100.00
61645;BME280;47553;52.428;13.382;2022-08-25T06:06:43;101493.38;;;19.23;100.00
61645;BME280;47553;52.428;13.382;2022-08-25T06:08:45;101495.09;;;19.24;100.00
61645;BME280;47553;52.428;13.382;2022-08-25T06:10:51;101498.31;;;19.18;100.00
61645;BME280;47553;52.428;13.382;2022-08-25T06:12:52;101496.09;;;19.12;100.00
61645;BME280;47553;52.428;13.382;2022-08-25T06:14:57;101507.19;;;19.09;100.00
61645;BME280;47553;52.428;13.382;2022-08-25T06:17:00;101496.56;;;19.06;100.00
61645;BME280;47553;52.428;13.382;2022-08-25T06:19:01;101501.50;;;19.01;100.00
61645;BME280;47553;52.428;13.382;2022-08-25T06:21:08;101495.88;;;18.82;100.00
61645;BME280;47553;52.428;13.382;2022-08-25T06:23:09;101494.78;;;18.73;100.00
61645;BME280;47553;52.428;13.382;2022-08-25T06:25:13;101495.63;;;18.74;100.00
61645;BME280;47553;52.428;13.382;2022-08-25T06:27:15;101497.97;;;18.67;100.00
61645;BME280;47553;52.428;13.382;2022-08-25T06:29:17;101493.91;;;18.73;100.00
61645;BME280;47553;52.428;13.382;2022-08-25T06:31:20;101493.78;;;18.63;100.00
61645;BME280;47553;52.428;13.382;2022-08-25T06:33:23;101511.34;;;18.68;100.00
61645;BME280;47553;52.428;13.382;2022-08-25T06:35:24;101503.50;;;18.65;100.00
61645;BME280;47553;52.428;13.382;2022-08-25T06:37:26;101511.59;;;18.65;100.00
61645;BME280;47553;52.428;13.382;2022-08-25T06:39:28;101505.72;;;18.60;100.00
61645;BME280;47553;52.428;13.382;2022-08-25T06:41:30;101515.66;;;18.71;100.00
61645;BME280;47553;52.428;13.382;2022-08-25T06:43:38;101513.56;;;18.75;100.00
61645;BME280;47553;52.428;13.382;2022-08-25T06:45:45;101515.53;;;18.73;100.00
61645;BME280;47553;52.428;13.382;2022-08-25T06:47:47;101509.13;;;18.85;100.00
61645;BME280;47553;52.428;13.382;2022-08-25T06:49:49;101517.97;;;18.87;100.00
61645;BME280;47553;52.428;13.382;2022-08-25T06:51:51;101521.41;;;18.89;100.00
61645;BME280;47553;52.428;13.382;2022-08-25T06:53:53;101516.25;;;18.86;100.00
61645;BME280;47553;52.428;13.382;2022-08-25T06:55:55;101517.63;;;18.91;100.00
61645;BME280;47553;52.428;13.382;2022-08-25T06:57:57;101517.50;;;18.93;100.00
61645;BME280;47553;52.428;13.382;2022-08-25T06:59:58;101520.81;;;18.96;100.00
61645;BME280;47553;52.428;13.382;2022-08-25T07:02:01;101525.59;;;18.93;100.00
61645;BME280;47553;52.428;13.382;2022-08-25T07:04:05;101525.59;;;18.82;100.00
61645;BME280;47553;52.428;13.382;2022-08-25T07:06:14;101526.22;;;18.85;100.00
61645;BME280;47553;52.428;13.382;2022-08-25T07:08:19;101520.19;;;18.82;100.00
61645;BME280;47553;52.428;13.382;2022-08-25T07:10:21;101517.00;;;18.88;100.00
61645;BME280;47553;52.428;13.382;2022-08-25T07:12:23;101509.38;;;18.82;100.00
61645;BME280;47553;52.428;13.382;2022-08-25T07:14:25;101512.56;;;18.87;100.00
61645;BME280;47553;52.428;13.382;2022-08-25T07:16:27;101512.19;;;19.03;100.00
61645;BME280;47553;52.428;13.382;2022-08-25T07:18:31;101503.72;;;19.18;100.00
61645;BME280;47553;52.428;13.382;2022-08-25T07:20:33;101505.19;;;19.11;100.00
61645;BME280;47553;52.428;13.382;2022-08-25T07:22:36;101505.47;;;19.08;100.00
61645;BME280;47553;52.428;13.382;2022-08-25T07:24:38;101510.88;;;19.08;100.00
61645;BME280;47553;52.428;13.382;2022-08-25T07:26:40;101505.19;;;19.22;100.00
61645;BME280;47553;52.428;13.382;2022-08-25T07:28:43;101511.06;;;19.27;100.00
61645;BME280;47553;52.428;13.382;2022-08-25T07:30:48;101509.59;;;19.23;100.00
61645;BME280;47553;52.428;13.382;2022-08-25T07:32:52;101506.13;;;19.33;100.00
61645;BME280;47553;52.428;13.382;2022-08-25T07:35:14;101486.34;;;19.43;100.00
61645;BME280;47553;52.428;13.382;2022-08-25T07:37:18;101493.44;;;19.55;100.00
61645;BME280;47553;52.428;13.382;2022-08-25T07:39:41;101498.66;;;19.68;100.00
61645;BME280;47553;52.428;13.382;2022-08-25T07:41:43;101487.06;;;19.77;100.00
61645;BME280;47553;52.428;13.382;2022-08-25T07:43:45;101481.16;;;19.83;100.00
61645;BME280;47553;52.428;13.382;2022-08-25T07:45:50;101494.38;;;19.98;100.00
61645;BME280;47553;52.428;13.382;2022-08-25T07:47:52;101489.50;;;19.80;100.00
61645;BME280;47553;52.428;13.382;2022-08-25T07:49:53;101497.19;;;19.96;100.00
61645;BME280;47553;52.428;13.382;2022-08-25T07:51:55;101493.84;;;20.04;100.00
61645;BME280;47553;52.428;13.382;2022-08-25T07:54:07;101498.44;;;20.13;100.00
61645;BME280;47553;52.428;13.382;2022-08-25T07:56:11;101494.16;;;20.10;100.00
61645;BME280;47553;52.428;13.382;2022-08-25T07:58:13;101497.19;;;20.17;100.00
61645;BME280;47553;52.428;13.382;2022-08-25T08:00:15;101496.94;;;20.20;100.00
61645;BME280;47553;52.428;13.382;2022-08-25T08:02:17;101490.78;;;20.18;100.00
61645;BME280;47553;52.428;13.382;2022-08-25T08:04:20;101494.22;;;20.20;100.00
61645;BME280;47553;52.428;13.382;2022-08-25T08:06:23;101494.31;;;20.30;100.00
61645;BME280;47553;52.428;13.382;2022-08-25T08:08:24;101486.97;;;20.41;100.00
61645;BME280;47553;52.428;13.382;2022-08-25T08:10:26;101487.34;;;20.58;100.00
61645;BME280;47553;52.428;13.382;2022-08-25T08:12:49;101483.69;;;20.68;100.00
61645;BME280;47553;52.428;13.382;2022-08-25T08:14:52;101484.38;;;20.61;100.00
61645;BME280;47553;52.428;13.382;2022-08-25T08:16:54;101488.25;;;20.68;100.00
61645;BME280;47553;52.428;13.382;2022-08-25T08:18:56;101482.72;;;20.79;100.00
61645;BME280;47553;52.428;13.382;2022-08-25T08:20:58;101485.31;;;20.80;100.00
61645;BME280;47553;52.428;13.382;2022-08-25T08:22:59;101485.78;;;20.95;100.00
61645;BME280;47553;52.428;13.382;2022-08-25T08:25:03;101485.56;;;21.08;100.00
61645;BME280;47553;52.428;13.382;2022-08-25T08:27:12;101481.03;;;21.28;100.00
61645;BME280;47553;52.428;13.382;2022-08-25T08:29:15;101485.63;;;21.37;100.00
61645;BME280;47553;52.428;13.382;2022-08-25T08:31:16;101477.66;;;21.35;100.00
61645;BME280;47553;52.428;13.382;2022-08-25T08:33:19;101475.78;;;21.36;100.00
61645;BME280;47553;52.428;13.382;2022-08-25T08:35:21;101474.50;;;21.49;100.00
61645;BME280;47553;52.428;13.382;2022-08-25T08:37:22;101475.78;;;21.55;100.00
61645;BME280;47553;52.428;13.382;2022-08-25T08:39:24;101476.22;;;21.41;100.00
61645;BME280;47553;52.428;13.382;2022-08-25T08:41:40;101466.22;;;21.70;100.00
61645;BME280;47553;52.428;13.382;2022-08-25T08:44:08;101456.78;;;21.65;100.00
61645;BME280;47553;52.428;13.382;2022-08-25T08:46:15;101459.66;;;21.63;100.00
61645;BME280;47553;52.428;13.382;2022-08-25T08:48:34;101453.94;;;21.66;100.00
61645;BME280;47553;52.428;13.382;2022-08-25T08:50:45;101456.22;;;21.71;100.00
61645;BME280;47553;52.428;13.382;2022-08-25T08:52:54;101458.63;;;22.03;100.00
61645;BME280;47553;52.428;13.382;2022-08-25T08:55:02;101454.13;;;22.40;100.00
61645;BME280;47553;52.428;13.382;2022-08-25T08:57:12;101460.56;;;22.76;99.69
61645;BME280;47553;52.428;13.382;2022-08-25T08:59:17;101449.56;;;23.05;96.39
61645;BME280;47553;52.428;13.382;2022-08-25T09:01:25;101456.88;;;23.23;94.54
61645;BME280;47553;52.428;13.382;2022-08-25T09:03:32;101453.97;;;23.34;94.25
61645;BME280;47553;52.428;13.382;2022-08-25T09:05:44;101462.63;;;23.20;93.88
61645;BME280;47553;52.428;13.382;2022-08-25T09:07:49;101461.72;;;22.74;96.38
61645;BME280;47553;52.428;13.382;2022-08-25T09:10:08;101454.63;;;22.54;97.98
61645;BME280;47553;52.428;13.382;2022-08-25T09:12:14;101456.41;;;22.45;98.79
61645;BME280;47553;52.428;13.382;2022-08-25T09:14:30;101457.50;;;22.62;98.70
61645;BME280;47553;52.428;13.382;2022-08-25T09:16:46;101452.38;;;22.59;99.47
61645;BME280;47553;52.428;13.382;2022-08-25T09:18:58;101448.75;;;22.95;98.47
61645;BME280;47553;52.428;13.382;2022-08-25T09:21:09;101443.16;;;23.42;95.19
61645;BME280;47553;52.428;13.382;2022-08-25T09:23:29;101442.34;;;23.59;92.92
61645;BME280;47553;52.428;13.382;2022-08-25T09:25:39;101443.41;;;23.66;91.74
61645;BME280;47553;52.428;13.382;2022-08-25T09:28:01;101440.34;;;23.87;91.35
61645;BME280;47553;52.428;13.382;2022-08-25T09:30:08;101430.13;;;24.07;90.37
61645;BME280;47553;52.428;13.382;2022-08-25T09:32:12;101436.66;;;24.14;89.37
61645;BME280;47553;52.428;13.382;2022-08-25T09:34:27;101433.03;;;24.31;89.15
61645;BME280;47553;52.428;13.382;2022-08-25T09:36:31;101433.88;;;24.32;88.85
61645;BME280;47553;52.428;13.382;2022-08-25T09:38:38;101430.78;;;24.27;87.58
61645;BME280;47553;52.428;13.382;2022-08-25T09:40:43;101427.22;;;24.60;86.28
61645;BME280;47553;52.428;13.382;2022-08-25T09:42:55;101431.19;;;24.66;85.67
61645;BME280;47553;52.428;13.382;2022-08-25T09:47:57;101420.69;;;24.53;86.00
61645;BME280;47553;52.428;13.382;2022-08-25T09:50:00;101417.81;;;24.55;86.46
61645;BME280;47553;52.428;13.382;2022-08-25T09:52:22;101424.97;;;24.56;85.64
61645;BME280;47553;52.428;13.382;2022-08-25T09:54:25;101424.59;;;24.51;86.15
61645;BME280;47553;52.428;13.382;2022-08-25T09:56:50;101416.03;;;24.38;85.72
61645;BME280;47553;52.428;13.382;2022-08-25T09:58:52;101407.47;;;24.32;86.72
61645;BME280;47553;52.428;13.382;2022-08-25T10:01:10;101415.16;;;24.11;87.57
61645;BME280;47553;52.428;13.382;2022-08-25T10:03:20;101413.94;;;24.31;87.54
61645;BME280;47553;52.428;13.382;2022-08-25T10:05:25;101419.34;;;23.97;88.35
61645;BME280;47553;52.428;13.382;2022-08-25T10:07:29;101401.00;;;23.64;89.14
61645;BME280;47553;52.428;13.382;2022-08-25T10:09:40;101408.00;;;23.66;90.18
61645;BME280;47553;52.428;13.382;2022-08-25T10:11:43;101411.63;;;23.93;89.48
61645;BME280;47553;52.428;13.382;2022-08-25T10:13:49;101407.25;;;24.00;88.44
61645;BME280;47553;52.428;13.382;2022-08-25T10:16:06;101399.66;;;23.86;89.00
61645;BME280;47553;52.428;13.382;2022-08-25T10:18:25;101401.25;;;24.22;87.87
61645;BME280;47553;52.428;13.382;2022-08-25T10:20:27;101405.88;;;24.56;87.43
61645;BME280;47553;52.428;13.382;2022-08-25T10:22:36;101405.63;;;24.67;85.24
61645;BME280;47553;52.428;13.382;2022-08-25T10:24:39;101398.81;;;24.71;84.60
61645;BME280;47553;52.428;13.382;2022-08-25T10:26:53;101403.91;;;24.66;85.11
61645;BME280;47553;52.428;13.382;2022-08-25T10:29:08;101403.53;;;24.61;84.50
61645;BME280;47553;52.428;13.382;2022-08-25T10:31:15;101400.72;;;24.45;85.38
61645;BME280;47553;52.428;13.382;2022-08-25T10:33:28;101389.81;;;24.45;85.54
61645;BME280;47553;52.428;13.382;2022-08-25T10:35:43;101397.03;;;24.62;84.80